Time;durP1;ratioP1;P1;durP2;ratioP2;P2;SDS_P1;SDS_P2;PMS_P1;PMS_P2;Temp;Humidity;BMP_temperature;BMP_pressure;BME280_temperature;BME280_humidity;BME280_pressure;Samples;Min_cycle;Max_cycle;Signal;HPM_P1;HPM_P2
2021/12/28 00:02:23;;;;;;;35.05;25.45;;;6.00;99.90;;;;;;5061888;28;20049;-61
2021/12/28 00:04:49;;;;;;;33.85;25.92;;;6.00;99.90;;;;;;5054928;28;20047;-61
2021/12/28 00:07:14;;;;;;;32.28;25.40;;;5.90;99.90;;;;;;5068587;28;20094;-62
2021/12/28 00:09:41;;;;;;;30.13;25.02;;;6.00;99.90;;;;;;5055516;28;20479;-62
2021/12/28 00:12:07;;;;;;;35.45;26.70;;;5.90;99.90;;;;;;5065512;28;20490;-62
2021/12/28 00:14:36;;;;;;;32.20;25.73;;;6.00;99.90;;;;;;5058965;28;20088;-61
2021/12/28 00:19:48;;;;;;;32.55;26.35;;;6.00;99.90;;;;;;5061565;28;20483;-61
2021/12/28 00:22:14;;;;;;;36.28;27.05;;;6.00;99.90;;;;;;5066748;28;20053;-61
2021/12/28 00:24:40;;;;;;;39.80;28.80;;;6.00;99.90;;;;;;5060863;28;20044;-61
2021/12/28 00:27:05;;;;;;;40.05;29.42;;;6.00;99.90;;;;;;5062964;28;20404;-61
2021/12/28 00:29:31;;;;;;;38.95;27.50;;;6.00;99.90;;;;;;5069268;28;20097;-61
2021/12/28 00:31:57;;;;;;;37.00;29.48;;;6.00;99.90;;;;;;5056839;28;20048;-61
2021/12/28 00:34:23;;;;;;;37.78;29.23;;;6.00;99.90;;;;;;5061976;28;20106;-61
2021/12/28 00:36:49;;;;;;;38.55;29.17;;;6.10;99.90;;;;;;5065329;28;20167;-61
2021/12/28 00:39:15;;;;;;;42.72;29.90;;;6.10;99.90;;;;;;5063484;28;20040;-61
2021/12/28 00:41:41;;;;;;;41.53;30.23;;;;;;;;;;5065166;28;20049;-61
2021/12/28 00:44:07;;;;;;;40.53;29.27;;;6.10;99.90;;;;;;5062745;28;20060;-61
2021/12/28 00:46:33;;;;;;;44.15;31.50;;;6.10;99.90;;;;;;5064877;28;20123;-61
2021/12/28 00:48:58;;;;;;;49.08;32.38;;;6.20;99.90;;;;;;5061581;28;20139;-61
2021/12/28 00:51:24;;;;;;;49.60;33.78;;;6.20;99.90;;;;;;5055084;28;20461;-61
2021/12/28 00:53:49;;;;;;;53.97;37.80;;;6.30;99.90;;;;;;5054381;28;20049;-61
2021/12/28 00:56:15;;;;;;;60.13;36.90;;;6.40;99.90;;;;;;5058274;28;20068;-61
2021/12/28 00:58:41;;;;;;;64.75;38.95;;;6.40;99.90;;;;;;5063222;28;20486;-60
2021/12/28 01:01:06;;;;;;;66.07;39.17;;;6.50;99.90;;;;;;5065697;28;20045;-61
2021/12/28 01:03:34;;;;;;;64.68;40.35;;;6.50;99.90;;;;;;5062970;28;20060;-61
2021/12/28 01:06:02;;;;;;;67.13;41.47;;;6.40;99.90;;;;;;5059872;28;20075;-61
2021/12/28 01:08:27;;;;;;;64.60;38.75;;;6.60;99.90;;;;;;5061336;28;20029;-61
2021/12/28 01:10:55;;;;;;;65.97;38.63;;;6.60;99.90;;;;;;5065577;28;20063;-61
2021/12/28 01:13:21;;;;;;;64.25;37.83;;;6.70;99.90;;;;;;5066173;28;20045;-62
2021/12/28 01:15:49;;;;;;;64.78;38.10;;;6.70;99.90;;;;;;5061930;28;20122;-61
2021/12/28 01:18:14;;;;;;;63.00;37.60;;;6.70;99.90;;;;;;5061970;28;20374;-60
2021/12/28 01:20:41;;;;;;;68.57;38.50;;;6.70;99.90;;;;;;5064194;28;20040;-61
2021/12/28 01:23:08;;;;;;;72.78;40.90;;;6.70;99.90;;;;;;5062394;28;20048;-61
2021/12/28 01:25:34;;;;;;;74.47;41.40;;;6.70;99.90;;;;;;5063371;28;20047;-62
2021/12/28 01:28:01;;;;;;;76.45;41.10;;;6.80;99.90;;;;;;5061123;28;20037;-61
2021/12/28 01:30:27;;;;;;;73.82;39.85;;;6.80;99.90;;;;;;5065282;28;20468;-61
2021/12/28 01:32:54;;;;;;;75.95;40.65;;;6.80;99.90;;;;;;5063179;28;20044;-62
2021/12/28 01:35:21;;;;;;;73.97;40.28;;;;;;;;;;5062641;28;20040;-62
2021/12/28 01:37:49;;;;;;;75.00;40.30;;;6.80;99.90;;;;;;5059677;28;20127;-62
2021/12/28 01:40:22;;;;;;;75.60;40.20;;;6.80;99.90;;;;;;5062008;28;20036;-61
2021/12/28 01:42:59;;;;;;;75.85;40.47;;;6.80;99.90;;;;;;5058510;28;20041;-62
2021/12/28 01:45:54;;;;;;;67.38;39.88;;;6.80;99.90;;;;;;5054375;28;20103;-61
2021/12/28 01:48:23;;;;;;;62.90;37.25;;;6.80;99.90;;;;;;5054909;28;20098;-62
2021/12/28 01:50:50;;;;;;;70.55;39.00;;;6.80;99.90;;;;;;5067844;28;20033;-62
2021/12/28 01:53:16;;;;;;;69.35;38.22;;;6.80;99.90;;;;;;5064753;28;20486;-61
2021/12/28 01:55:46;;;;;;;67.75;38.88;;;6.80;99.90;;;;;;5060217;28;20045;-61
2021/12/28 01:58:12;;;;;;;73.38;39.13;;;6.80;99.90;;;;;;5058539;28;20045;-62
2021/12/28 02:00:39;;;;;;;67.28;39.30;;;6.80;99.90;;;;;;5065891;28;20127;-62
2021/12/28 02:03:11;;;;;;;65.57;38.58;;;6.80;99.90;;;;;;5061312;28;20044;-62
2021/12/28 02:05:36;;;;;;;71.25;40.10;;;6.80;99.90;;;;;;5060439;28;20044;-62
2021/12/28 02:08:03;;;;;;;70.55;39.30;;;6.80;99.90;;;;;;5059211;28;20052;-62
2021/12/28 02:10:29;;;;;;;68.43;39.35;;;6.80;99.90;;;;;;5064691;28;20040;-62
2021/12/28 02:12:54;;;;;;;61.15;38.90;;;6.80;99.90;;;;;;5062396;28;20138;-62
2021/12/28 02:15:20;;;;;;;68.38;39.40;;;6.80;99.90;;;;;;5061731;28;20432;-62
2021/12/28 02:17:45;;;;;;;68.43;38.65;;;6.80;99.90;;;;;;5056494;28;20569;-62
2021/12/28 02:20:14;;;;;;;64.25;39.33;;;6.90;99.90;;;;;;5065650;28;20448;-62
2021/12/28 02:22:40;;;;;;;69.22;40.55;;;6.80;99.90;;;;;;5061703;28;20414;-62
2021/12/28 02:25:08;;;;;;;63.72;38.28;;;6.80;99.90;;;;;;5057014;28;20040;-62
2021/12/28 02:27:34;;;;;;;68.25;38.08;;;6.80;99.90;;;;;;5062677;28;20128;-62
2021/12/28 02:30:00;;;;;;;67.88;39.08;;;6.80;99.90;;;;;;5055572;28;20048;-62
2021/12/28 02:32:28;;;;;;;67.07;39.45;;;6.90;99.90;;;;;;5060973;28;20047;-62
2021/12/28 02:34:55;;;;;;;64.22;39.17;;;6.90;99.90;;;;;;5058422;28;20033;-61
2021/12/28 02:37:21;;;;;;;64.28;38.45;;;6.90;99.90;;;;;;5061873;28;20072;-61
2021/12/28 02:39:47;;;;;;;67.68;38.78;;;6.90;99.90;;;;;;5063028;28;20040;-62
2021/12/28 02:42:16;;;;;;;61.70;36.97;;;6.90;99.90;;;;;;5058828;28;20701;-62
2021/12/28 02:44:41;;;;;;;63.58;38.85;;;6.80;99.90;;;;;;5061863;28;20040;-62
2021/12/28 02:47:07;;;;;;;65.07;38.42;;;6.90;99.90;;;;;;5058841;28;20513;-61
2021/12/28 02:49:35;;;;;;;65.80;38.67;;;6.90;99.90;;;;;;5067444;28;20127;-60
2021/12/28 02:52:01;;;;;;;58.83;37.13;;;6.90;99.90;;;;;;5066222;28;20091;-59
2021/12/28 02:54:26;;;;;;;58.90;36.10;;;6.90;99.90;;;;;;5059364;28;20077;-61
2021/12/28 02:56:52;;;;;;;64.30;36.45;;;6.80;99.90;;;;;;5063290;28;20101;-60
2021/12/28 02:59:17;;;;;;;55.95;35.47;;;6.70;99.90;;;;;;5056134;28;20053;-60
2021/12/28 03:01:43;;;;;;;53.80;33.92;;;6.60;99.90;;;;;;5060841;28;20121;-60
2021/12/28 03:04:08;;;;;;;55.33;35.35;;;6.50;99.90;;;;;;5065691;28;20041;-59
2021/12/28 03:06:35;;;;;;;62.25;36.83;;;6.50;99.90;;;;;;5065614;28;20498;-58
2021/12/28 03:09:04;;;;;;;63.08;37.03;;;6.40;99.90;;;;;;5060938;28;20036;-59
2021/12/28 03:11:30;;;;;;;65.03;35.70;;;6.30;99.90;;;;;;5054867;28;20407;-59
2021/12/28 03:13:59;;;;;;;61.75;36.70;;;6.30;99.90;;;;;;5060544;28;20041;-59
2021/12/28 03:16:27;;;;;;;65.13;35.42;;;6.20;99.90;;;;;;5062917;28;20048;-60
2021/12/28 03:18:53;;;;;;;65.38;34.95;;;6.10;99.90;;;;;;5056153;28;20050;-59
2021/12/28 03:21:20;;;;;;;75.05;36.25;;;6.00;99.90;;;;;;5060438;28;20048;-59
2021/12/28 03:23:46;;;;;;;75.18;35.60;;;5.90;99.90;;;;;;5058519;28;20048;-59
2021/12/28 03:26:13;;;;;;;148.88;39.58;;;5.90;99.90;;;;;;5058674;28;20039;-59
2021/12/28 03:28:42;;;;;;;353.15;47.10;;;5.80;99.90;;;;;;5059834;28;20487;-59
2021/12/28 03:31:11;;;;;;;422.52;47.72;;;5.80;99.90;;;;;;5061605;28;20484;-60
2021/12/28 03:33:39;;;;;;;401.83;44.35;;;5.80;99.90;;;;;;5058115;28;20072;-59
2021/12/28 03:36:07;;;;;;;368.83;43.55;;;5.80;99.90;;;;;;5058735;28;20540;-59
2021/12/28 03:38:33;;;;;;;403.02;46.70;;;5.80;99.90;;;;;;5053262;28;20052;-59
2021/12/28 03:41:00;;;;;;;281.10;41.95;;;5.80;99.90;;;;;;5066888;28;20521;-59
2021/12/28 03:43:25;;;;;;;237.85;37.92;;;5.70;99.90;;;;;;5058803;28;20132;-60
2021/12/28 03:45:52;;;;;;;270.13;44.20;;;5.80;99.90;;;;;;5059614;28;20446;-59
2021/12/28 03:48:18;;;;;;;178.70;39.83;;;5.80;99.90;;;;;;5059185;28;20041;-60
2021/12/28 03:50:43;;;;;;;166.07;40.25;;;5.70;99.90;;;;;;5057478;28;20040;-58
2021/12/28 03:53:10;;;;;;;147.90;40.15;;;5.80;99.90;;;;;;5068062;28;20043;-59
2021/12/28 03:55:36;;;;;;;103.75;37.22;;;5.80;99.90;;;;;;5064638;28;20565;-60
2021/12/28 03:58:03;;;;;;;138.80;42.50;;;5.80;99.90;;;;;;5064863;28;20048;-60
2021/12/28 04:00:33;;;;;;;127.50;41.30;;;5.90;99.90;;;;;;5059392;28;20125;-59
2021/12/28 04:02:59;;;;;;;105.32;38.65;;;5.90;99.90;;;;;;5067875;28;20064;-60
2021/12/28 04:05:25;;;;;;;128.95;40.92;;;5.90;99.90;;;;;;5061084;28;20161;-60
2021/12/28 04:07:51;;;;;;;128.35;40.67;;;5.90;99.90;;;;;;5066426;28;20040;-59
2021/12/28 04:10:19;;;;;;;105.20;38.30;;;5.90;99.90;;;;;;5063862;28;20117;-59
2021/12/28 04:12:44;;;;;;;110.55;38.30;;;5.90;99.90;;;;;;5066323;28;20045;-59
2021/12/28 04:15:13;;;;;;;106.32;37.28;;;5.90;99.90;;;;;;5057655;28;20090;-59
2021/12/28 04:17:39;;;;;;;98.97;37.35;;;5.90;99.90;;;;;;5063260;28;20037;-59
2021/12/28 04:20:09;;;;;;;93.40;36.50;;;6.00;99.90;;;;;;5070302;28;20395;-59
2021/12/28 04:22:35;;;;;;;90.60;35.47;;;6.00;99.90;;;;;;5063111;28;20089;-59
2021/12/28 04:25:01;;;;;;;107.15;38.17;;;;;;;;;;5061812;28;20432;-59
2021/12/28 04:27:26;;;;;;;97.80;35.60;;;5.90;99.90;;;;;;5061337;28;20092;-60
2021/12/28 04:29:52;;;;;;;89.97;35.40;;;6.00;99.90;;;;;;5067386;28;20045;-59
2021/12/28 04:32:17;;;;;;;88.25;35.50;;;6.00;99.90;;;;;;5060615;28;20045;-59
2021/12/28 04:34:43;;;;;;;81.55;33.08;;;6.00;99.90;;;;;;5069488;28;20129;-59
2021/12/28 04:37:09;;;;;;;80.03;32.97;;;5.90;99.90;;;;;;5065410;28;20052;-59
2021/12/28 04:39:34;;;;;;;84.20;34.42;;;6.00;99.90;;;;;;5066530;28;20478;-60
2021/12/28 04:42:00;;;;;;;77.90;32.08;;;5.90;99.90;;;;;;5063688;28;20120;-60
2021/12/28 04:44:26;;;;;;;82.38;31.60;;;5.90;99.90;;;;;;5056490;28;20584;-60
2021/12/28 04:46:54;;;;;;;75.93;32.42;;;5.90;99.90;;;;;;5060125;28;20037;-60
2021/12/28 04:49:24;;;;;;;71.72;31.55;;;5.90;99.90;;;;;;5066699;28;20048;-59
2021/12/28 04:51:50;;;;;;;85.63;34.95;;;5.90;99.90;;;;;;5063359;28;20055;-59
2021/12/28 04:54:16;;;;;;;64.15;30.65;;;5.90;99.90;;;;;;5054829;28;20041;-59
2021/12/28 04:56:42;;;;;;;66.05;31.15;;;5.90;99.90;;;;;;5062907;28;20033;-60
2021/12/28 04:59:08;;;;;;;70.22;31.98;;;5.90;99.90;;;;;;5063138;28;20123;-59
2021/12/28 05:01:36;;;;;;;62.08;30.58;;;5.90;99.90;;;;;;5062165;28;20135;-59
2021/12/28 05:04:04;;;;;;;70.60;31.10;;;5.90;99.90;;;;;;5067279;28;20115;-60
2021/12/28 05:06:30;;;;;;;67.60;30.70;;;5.90;99.90;;;;;;5068810;28;20075;-60
2021/12/28 05:08:55;;;;;;;63.47;30.17;;;5.90;99.90;;;;;;5066466;28;20090;-60
2021/12/28 05:11:21;;;;;;;58.47;28.95;;;5.90;99.90;;;;;;5064930;28;20048;-59
2021/12/28 05:13:47;;;;;;;56.83;29.67;;;5.90;99.90;;;;;;5058535;28;20105;-59
2021/12/28 05:16:15;;;;;;;55.83;28.88;;;5.90;99.90;;;;;;5057818;28;20133;-59
2021/12/28 05:18:41;;;;;;;54.47;27.98;;;5.90;99.90;;;;;;5061773;28;20053;-59
2021/12/28 05:21:06;;;;;;;56.70;28.58;;;5.90;99.90;;;;;;5062344;28;20498;-60
2021/12/28 05:23:32;;;;;;;51.55;28.27;;;5.90;99.90;;;;;;5062876;28;20048;-60
2021/12/28 05:25:57;;;;;;;51.65;28.63;;;5.90;99.90;;;;;;5067905;28;20040;-60
2021/12/28 05:28:23;;;;;;;49.58;26.85;;;5.90;99.90;;;;;;5060895;28;20041;-59
2021/12/28 05:30:50;;;;;;;57.58;28.63;;;5.90;99.90;;;;;;5065482;28;20075;-59
2021/12/28 05:33:16;;;;;;;50.13;27.00;;;5.90;99.90;;;;;;5062808;28;20053;-60
2021/12/28 05:35:41;;;;;;;49.60;26.95;;;5.90;99.90;;;;;;5060960;28;20448;-60
2021/12/28 05:38:07;;;;;;;46.15;25.60;;;5.90;99.90;;;;;;5064297;28;20555;-59
2021/12/28 05:40:32;;;;;;;44.70;25.13;;;5.90;99.90;;;;;;5067390;28;20051;-60
2021/12/28 05:42:58;;;;;;;48.10;24.35;;;5.90;99.90;;;;;;5061756;28;20055;-60
2021/12/28 05:45:23;;;;;;;46.88;25.55;;;5.90;99.90;;;;;;5066596;28;20044;-59
2021/12/28 05:47:49;;;;;;;39.90;24.27;;;5.80;99.90;;;;;;5057897;28;21310;-59
2021/12/28 05:50:15;;;;;;;42.20;25.33;;;5.80;99.90;;;;;;5066536;28;20091;-59
2021/12/28 05:52:40;;;;;;;43.72;23.55;;;5.80;99.90;;;;;;5066673;28;20056;-59
2021/12/28 05:55:07;;;;;;;40.83;22.77;;;5.80;99.90;;;;;;5064413;28;20036;-60
2021/12/28 05:57:32;;;;;;;35.58;21.73;;;5.70;99.90;;;;;;5064033;28;20060;-59
2021/12/28 05:59:58;;;;;;;33.58;21.63;;;5.70;99.90;;;;;;5066477;28;20418;-60
2021/12/28 06:02:23;;;;;;;35.70;20.35;;;5.60;99.90;;;;;;5057236;28;20435;-58
2021/12/28 06:04:49;;;;;;;39.35;21.42;;;5.50;99.90;;;;;;5064682;28;20127;-59
2021/12/28 06:07:14;;;;;;;37.80;19.63;;;5.50;99.90;;;;;;5061480;28;20494;-60
2021/12/28 06:09:40;;;;;;;37.63;21.90;;;5.50;99.90;;;;;;5058744;28;20175;-60
2021/12/28 06:12:06;;;;;;;33.00;21.33;;;5.50;99.90;;;;;;5068814;28;20516;-60
2021/12/28 06:14:33;;;;;;;36.70;20.58;;;5.50;99.90;;;;;;5064301;28;20040;-59
2021/12/28 06:16:59;;;;;;;33.63;19.95;;;5.50;99.90;;;;;;5060953;28;20504;-60
2021/12/28 06:19:24;;;;;;;37.15;19.80;;;5.60;99.90;;;;;;5061290;28;20041;-60
2021/12/28 06:21:50;;;;;;;34.67;19.88;;;5.60;99.90;;;;;;5063688;28;20483;-61
2021/12/28 06:24:15;;;;;;;37.53;21.10;;;5.60;99.90;;;;;;5058841;28;20048;-61
2021/12/28 06:26:41;;;;;;;36.15;20.63;;;5.50;99.90;;;;;;5053374;28;20048;-61
2021/12/28 06:29:08;;;;;;;36.30;19.90;;;5.50;99.90;;;;;;5064723;28;20033;-61
2021/12/28 06:31:34;;;;;;;36.15;18.92;;;5.50;99.90;;;;;;5067838;28;20064;-61
2021/12/28 06:34:02;;;;;;;38.00;19.13;;;5.50;99.90;;;;;;5055790;28;20282;-61
2021/12/28 06:36:28;;;;;;;35.17;19.48;;;5.40;99.90;;;;;;5053551;28;20498;-61
2021/12/28 06:38:54;;;;;;;31.23;17.77;;;5.40;99.90;;;;;;5057964;28;20155;-61
2021/12/28 06:41:19;;;;;;;33.38;18.50;;;5.40;99.90;;;;;;5068340;28;20394;-61
2021/12/28 06:43:47;;;;;;;34.03;18.95;;;5.50;99.90;;;;;;5066741;28;20037;-61
2021/12/28 06:46:13;;;;;;;35.60;19.23;;;5.50;99.90;;;;;;5056782;28;20491;-61
2021/12/28 06:48:39;;;;;;;34.28;18.40;;;5.50;99.90;;;;;;5059579;28;20056;-61
2021/12/28 06:51:06;;;;;;;36.28;18.58;;;5.50;99.90;;;;;;5061603;28;20048;-60
2021/12/28 06:53:32;;;;;;;31.02;17.98;;;5.60;99.90;;;;;;5060642;28;20113;-61
2021/12/28 06:55:57;;;;;;;30.27;17.70;;;5.60;99.90;;;;;;5062270;28;20123;-61
2021/12/28 06:58:23;;;;;;;28.73;18.00;;;5.60;99.90;;;;;;5060296;28;20167;-61
2021/12/28 07:00:49;;;;;;;28.38;17.92;;;5.60;99.90;;;;;;5060028;28;20428;-61
2021/12/28 07:03:14;;;;;;;29.67;17.13;;;5.70;99.90;;;;;;5064779;28;20529;-60
2021/12/28 07:05:40;;;;;;;25.40;17.38;;;5.70;99.90;;;;;;5062960;28;20063;-60
2021/12/28 07:08:05;;;;;;;31.45;17.30;;;5.80;99.90;;;;;;5062297;28;20143;-60
2021/12/28 07:10:31;;;;;;;33.58;17.40;;;5.70;99.90;;;;;;5057084;28;20044;-61
2021/12/28 07:12:57;;;;;;;32.90;16.55;;;5.70;99.90;;;;;;5062987;28;20121;-60
2021/12/28 07:15:23;;;;;;;27.85;16.65;;;5.70;99.90;;;;;;5063592;28;20095;-61
2021/12/28 07:17:49;;;;;;;24.60;15.63;;;5.70;99.90;;;;;;5054741;28;20052;-61
2021/12/28 07:20:15;;;;;;;31.67;16.80;;;5.70;99.90;;;;;;5058583;28;20059;-61
2021/12/28 07:22:41;;;;;;;28.48;16.67;;;5.70;99.90;;;;;;5063947;28;20063;-61
2021/12/28 07:25:09;;;;;;;29.70;16.10;;;5.70;99.90;;;;;;5062232;28;20051;-60
2021/12/28 07:27:35;;;;;;;32.10;15.82;;;5.70;99.90;;;;;;5057618;28;20053;-60
2021/12/28 07:30:02;;;;;;;26.02;16.58;;;5.70;99.90;;;;;;5056857;28;20045;-60
2021/12/28 07:32:27;;;;;;;25.83;15.38;;;5.70;99.90;;;;;;5056826;28;20048;-61
2021/12/28 07:34:53;;;;;;;33.97;16.83;;;5.80;99.90;;;;;;5064473;28;20040;-60
2021/12/28 07:37:18;;;;;;;25.08;15.05;;;5.80;99.90;;;;;;5058905;28;20178;-61
2021/12/28 07:39:44;;;;;;;27.38;14.77;;;5.70;99.90;;;;;;5056114;28;20117;-61
2021/12/28 07:42:10;;;;;;;26.00;15.20;;;5.70;99.90;;;;;;5059415;28;20071;-61
2021/12/28 07:44:36;;;;;;;29.10;15.45;;;5.70;99.90;;;;;;5060168;28;20120;-61
2021/12/28 07:47:04;;;;;;;27.63;15.82;;;5.80;99.90;;;;;;5062317;28;20152;-60
2021/12/28 07:49:30;;;;;;;26.90;14.75;;;5.70;99.90;;;;;;5062168;28;20193;-61
2021/12/28 07:51:56;;;;;;;26.13;14.40;;;5.70;99.90;;;;;;5062823;28;20603;-61
2021/12/28 07:54:21;;;;;;;25.63;14.55;;;5.70;99.90;;;;;;5063412;28;20388;-61
2021/12/28 07:56:47;;;;;;;26.08;14.30;;;5.80;99.90;;;;;;5055900;28;20052;-61
2021/12/28 07:59:12;;;;;;;23.15;14.55;;;5.80;99.90;;;;;;5059640;28;20052;-61
2021/12/28 08:01:38;;;;;;;22.58;14.40;;;5.80;99.90;;;;;;5056255;28;20475;-60
2021/12/28 08:04:04;;;;;;;26.35;13.63;;;5.80;99.90;;;;;;5059233;28;20052;-60
2021/12/28 08:06:29;;;;;;;23.08;13.00;;;5.80;99.90;;;;;;5052551;28;20337;-61
2021/12/28 08:08:55;;;;;;;25.20;13.10;;;5.80;99.90;;;;;;5058648;28;20048;-60
2021/12/28 08:11:22;;;;;;;25.30;14.15;;;5.80;99.90;;;;;;5060980;28;20064;-60
2021/12/28 08:13:49;;;;;;;24.08;13.32;;;5.90;99.90;;;;;;5060294;28;20390;-60
2021/12/28 08:16:15;;;;;;;25.08;12.70;;;5.90;99.90;;;;;;5058181;28;20055;-61
2021/12/28 08:18:40;;;;;;;26.38;12.93;;;5.90;99.90;;;;;;5061176;28;20036;-60
2021/12/28 08:21:06;;;;;;;21.75;11.93;;;5.90;99.90;;;;;;5061053;28;20045;-61
2021/12/28 08:23:32;;;;;;;20.92;11.93;;;5.90;99.90;;;;;;5059606;28;20063;-60
2021/12/28 08:25:58;;;;;;;21.80;12.52;;;6.00;99.90;;;;;;5052335;28;21077;-60
2021/12/28 08:28:23;;;;;;;23.13;11.27;;;6.00;99.90;;;;;;5055080;28;20123;-60
2021/12/28 08:30:49;;;;;;;30.20;11.63;;;6.00;99.90;;;;;;5051415;28;20456;-60
2021/12/28 08:33:15;;;;;;;26.85;11.57;;;6.00;99.90;;;;;;5064322;28;20045;-61
2021/12/28 08:35:41;;;;;;;24.80;11.00;;;6.10;99.90;;;;;;5062877;28;20047;-60
2021/12/28 08:38:09;;;;;;;22.83;10.10;;;6.10;99.90;;;;;;5057074;28;20079;-60
2021/12/28 08:40:35;;;;;;;26.92;10.85;;;6.20;99.90;;;;;;5061910;28;20504;-60
2021/12/28 08:43:01;;;;;;;24.05;10.13;;;6.20;99.90;;;;;;5065767;28;20139;-61
2021/12/28 08:45:26;;;;;;;22.30;9.90;;;6.20;99.90;;;;;;5064174;28;20122;-60
2021/12/28 08:47:52;;;;;;;22.13;10.07;;;6.30;99.90;;;;;;5068333;28;20118;-60
2021/12/28 08:50:19;;;;;;;27.27;10.25;;;6.30;99.90;;;;;;5062240;28;20083;-60
2021/12/28 08:52:45;;;;;;;22.42;10.20;;;6.40;99.90;;;;;;5065836;28;20442;-60
2021/12/28 08:55:10;;;;;;;24.55;10.18;;;6.40;99.90;;;;;;5066642;28;20081;-59
2021/12/28 08:57:37;;;;;;;24.17;9.63;;;6.50;99.90;;;;;;5064328;28;20482;-58
2021/12/28 09:00:09;;;;;;;20.05;9.20;;;6.50;99.90;;;;;;5065574;28;20051;-60
2021/12/28 09:02:34;;;;;;;23.45;9.55;;;6.50;99.90;;;;;;5066507;28;20386;-60
2021/12/28 09:05:00;;;;;;;21.92;9.13;;;6.60;99.90;;;;;;5060205;28;20059;-60
2021/12/28 09:07:26;;;;;;;25.25;9.45;;;6.60;99.90;;;;;;5063791;28;20442;-60
2021/12/28 09:09:52;;;;;;;17.90;8.63;;;;;;;;;;5064591;28;20056;-60
2021/12/28 09:12:17;;;;;;;21.80;8.77;;;6.70;99.90;;;;;;5062770;28;20044;-60
2021/12/28 09:14:43;;;;;;;24.42;8.68;;;6.80;99.90;;;;;;5060240;28;20053;-60
2021/12/28 09:17:09;;;;;;;20.92;8.43;;;6.80;99.90;;;;;;5062089;28;20054;-60
2021/12/28 09:19:36;;;;;;;24.70;8.80;;;6.90;99.90;;;;;;5066080;28;20049;-61
2021/12/28 09:22:01;;;;;;;20.60;8.63;;;6.90;99.90;;;;;;5068004;28;20095;-61
2021/12/28 09:24:27;;;;;;;18.13;7.78;;;7.00;99.90;;;;;;5065935;28;20171;-60
2021/12/28 09:26:52;;;;;;;18.25;8.38;;;7.00;99.90;;;;;;5061245;28;20044;-61
2021/12/28 09:29:18;;;;;;;19.88;7.78;;;7.00;99.90;;;;;;5059897;28;20124;-60
2021/12/28 09:31:44;;;;;;;25.02;7.90;;;7.10;99.90;;;;;;5056870;28;20140;-60
2021/12/28 09:34:09;;;;;;;18.20;7.65;;;7.10;99.90;;;;;;5058486;28;20471;-60
2021/12/28 09:36:36;;;;;;;16.17;7.03;;;;;;;;;;5071068;28;20455;-61
2021/12/28 09:39:02;;;;;;;21.10;7.43;;;7.20;99.90;;;;;;5069766;28;20055;-61
2021/12/28 09:41:28;;;;;;;20.40;6.93;;;7.20;99.90;;;;;;5069852;28;20036;-60
2021/12/28 09:43:54;;;;;;;19.63;7.80;;;7.30;99.90;;;;;;5057915;28;20048;-60
2021/12/28 09:46:19;;;;;;;21.30;6.82;;;7.40;99.90;;;;;;5067776;28;20494;-60
2021/12/28 09:48:45;;;;;;;18.00;7.00;;;7.40;99.90;;;;;;5069847;28;20043;-61
2021/12/28 09:51:10;;;;;;;20.05;7.05;;;7.40;99.90;;;;;;5066466;28;20124;-61
2021/12/28 09:53:38;;;;;;;19.77;7.40;;;7.50;99.90;;;;;;5066122;28;20150;-61
2021/12/28 09:56:05;;;;;;;16.45;6.68;;;7.50;99.90;;;;;;5068027;28;20076;-61
2021/12/28 09:58:36;;;;;;;21.35;6.95;;;7.50;99.90;;;;;;5067495;28;20045;-60
2021/12/28 10:01:03;;;;;;;13.98;6.20;;;7.60;99.90;;;;;;5059593;28;20502;-61
2021/12/28 10:03:29;;;;;;;22.33;6.80;;;7.60;99.90;;;;;;5065257;28;20051;-60
2021/12/28 10:05:54;;;;;;;21.75;6.45;;;7.70;99.90;;;;;;5068348;28;20286;-61
2021/12/28 10:08:24;;;;;;;19.05;7.03;;;7.60;99.90;;;;;;5069766;28;20052;-61
2021/12/28 10:10:53;;;;;;;16.60;6.38;;;7.70;99.90;;;;;;5065653;28;20060;-60
2021/12/28 10:13:21;;;;;;;18.30;7.15;;;7.70;99.90;;;;;;5054628;28;20094;-59
2021/12/28 10:15:49;;;;;;;18.58;7.10;;;7.70;99.90;;;;;;5068170;28;20037;-61
2021/12/28 10:18:15;;;;;;;16.90;6.95;;;7.80;99.90;;;;;;5054766;28;20041;-60
2021/12/28 10:20:53;;;;;;;18.95;7.25;;;7.70;99.90;;;;;;5057817;28;20033;-60
2021/12/28 10:23:22;;;;;;;20.38;7.32;;;7.70;99.90;;;;;;5068815;28;20044;-60
2021/12/28 10:25:51;;;;;;;17.73;6.82;;;7.70;99.90;;;;;;5070552;28;20044;-60
2021/12/28 10:28:23;;;;;;;15.10;7.07;;;7.70;99.90;;;;;;5056592;28;20040;-60
2021/12/28 10:30:53;;;;;;;19.08;6.72;;;7.70;99.90;;;;;;5070036;28;20040;-60
2021/12/28 10:33:23;;;;;;;15.45;7.20;;;7.70;99.90;;;;;;5070830;28;20041;-60
2021/12/28 10:36:02;;;;;;;17.65;6.97;;;7.70;99.90;;;;;;5065794;28;20127;-61
2021/12/28 10:38:30;;;;;;;18.50;8.25;;;7.80;99.90;;;;;;5067035;28;20045;-60
2021/12/28 10:41:17;;;;;;;21.75;7.75;;;7.70;99.90;;;;;;5059500;28;20674;-60
2021/12/28 10:43:46;;;;;;;17.90;7.82;;;7.70;99.90;;;;;;5067720;28;20355;-60
2021/12/28 10:46:15;;;;;;;22.88;7.75;;;7.70;99.90;;;;;;5052596;28;20407;-60
2021/12/28 10:48:50;;;;;;;22.75;8.38;;;7.80;99.90;;;;;;5070023;28;20370;-60
2021/12/28 10:51:27;;;;;;;22.02;7.57;;;7.70;99.90;;;;;;5053524;28;20116;-60
2021/12/28 10:56:57;;;;;;;18.98;7.75;;;7.80;99.90;;;;;;5074274;28;20067;-59
2021/12/28 10:59:26;;;;;;;25.52;8.68;;;7.80;99.90;;;;;;5052680;28;20041;-60
2021/12/28 11:01:52;;;;;;;21.40;8.48;;;7.80;99.90;;;;;;5056793;28;20116;-59
2021/12/28 11:04:19;;;;;;;20.40;8.38;;;7.80;99.90;;;;;;5061858;28;20044;-60
2021/12/28 11:06:47;;;;;;;25.80;8.57;;;7.80;99.90;;;;;;5052198;28;20037;-60
2021/12/28 11:09:19;;;;;;;20.55;8.80;;;7.80;99.90;;;;;;5069854;28;20068;-61
2021/12/28 11:11:46;;;;;;;25.33;9.95;;;7.80;99.90;;;;;;5059919;28;20091;-60
2021/12/28 11:14:20;;;;;;;20.38;8.93;;;7.80;99.90;;;;;;5063710;28;20115;-60
2021/12/28 11:16:49;;;;;;;20.02;8.68;;;7.80;99.90;;;;;;5055140;28;20068;-61
2021/12/28 11:19:27;;;;;;;23.00;9.68;;;7.80;99.90;;;;;;5058488;28;20056;-61
2021/12/28 11:21:55;;;;;;;21.48;8.68;;;7.80;99.90;;;;;;5070198;28;20072;-60
2021/12/28 11:24:20;;;;;;;;;;;7.80;99.90;;;;;;5059657;28;20056;-60
2021/12/28 11:26:48;;;;;;;22.38;9.68;;;7.80;99.90;;;;;;5071999;28;20427;-61
2021/12/28 11:29:20;;;;;;;22.88;9.90;;;7.80;99.90;;;;;;5070372;28;20041;-61
2021/12/28 11:31:51;;;;;;;23.20;11.27;;;7.80;99.90;;;;;;5067060;28;20040;-60
2021/12/28 11:34:29;;;;;;;21.63;10.07;;;7.80;99.90;;;;;;5055405;28;20110;-60
2021/12/28 11:36:58;;;;;;;24.10;10.82;;;7.90;99.90;;;;;;5071866;28;20113;-59
2021/12/28 11:39:37;;;;;;;24.45;10.68;;;7.90;99.90;;;;;;5069223;28;20079;-60
2021/12/28 11:42:04;;;;;;;26.15;11.43;;;7.90;99.90;;;;;;5067899;28;20060;-60
2021/12/28 11:44:31;;;;;;;21.80;10.77;;;7.90;99.90;;;;;;5066746;28;20052;-60
2021/12/28 11:46:58;;;;;;;23.42;11.90;;;7.90;99.90;;;;;;5071720;28;20036;-60
2021/12/28 11:49:28;;;;;;;26.15;11.13;;;7.90;99.90;;;;;;5064704;28;20090;-60
2021/12/28 11:51:55;;;;;;;16.65;10.80;;;7.90;99.90;;;;;;5067475;28;20056;-60
2021/12/28 11:54:24;;;;;;;26.73;12.88;;;7.90;99.90;;;;;;5059153;28;20037;-60
2021/12/28 11:56:57;;;;;;;22.08;11.35;;;7.90;99.90;;;;;;5070089;28;20087;-60
2021/12/28 11:59:26;;;;;;;19.33;11.40;;;8.00;99.90;;;;;;5062039;28;20048;-60
2021/12/28 12:01:51;;;;;;;16.55;11.70;;;8.00;99.90;;;;;;5066473;28;20079;-60
2021/12/28 12:04:32;;;;;;;17.23;12.38;;;8.00;99.90;;;;;;5059550;28;20083;-61
2021/12/28 12:07:01;;;;;;;22.13;13.43;;;8.00;99.90;;;;;;5069214;28;20633;-60
2021/12/28 12:09:28;;;;;;;18.52;12.38;;;;;;;;;;5064176;28;20464;-60
2021/12/28 12:12:09;;;;;;;19.40;13.18;;;8.00;99.90;;;;;;5063365;28;20053;-61
2021/12/28 12:15:01;;;;;;;18.05;12.98;;;8.10;99.90;;;;;;5065274;28;20045;-62
2021/12/28 12:17:45;;;;;;;21.70;12.88;;;8.10;99.90;;;;;;5068459;28;20053;-60
2021/12/28 12:20:13;;;;;;;17.27;12.75;;;8.10;99.90;;;;;;5062447;28;20041;-60
2021/12/28 12:23:00;;;;;;;19.35;13.70;;;8.10;99.90;;;;;;5062991;28;20045;-60
2021/12/28 12:25:42;;;;;;;22.00;14.95;;;8.10;99.90;;;;;;5055303;28;20048;-60
2021/12/28 12:28:09;;;;;;;21.90;16.88;;;8.10;99.90;;;;;;5060959;28;20041;-60
2021/12/28 12:30:34;;;;;;;26.67;17.25;;;8.20;99.90;;;;;;5074629;28;20040;-61
2021/12/28 12:33:07;;;;;;;23.25;16.73;;;8.20;99.90;;;;;;5074748;28;20407;-61
2021/12/28 12:35:36;;;;;;;24.25;17.27;;;8.20;99.90;;;;;;5059983;28;20056;-61
2021/12/28 12:38:14;;;;;;;21.92;16.70;;;8.20;99.90;;;;;;5059443;28;20124;-60
2021/12/28 12:40:55;;;;;;;25.05;16.23;;;8.30;99.90;;;;;;5059436;28;20044;-60
2021/12/28 12:43:23;;;;;;;22.65;16.55;;;8.20;99.90;;;;;;5066726;28;20430;-61
2021/12/28 12:45:56;;;;;;;21.35;16.42;;;8.30;99.90;;;;;;5054287;28;20502;-60
2021/12/28 12:48:36;;;;;;;23.05;18.50;;;8.30;99.90;;;;;;5070875;28;20093;-60